San Luis Obispo (SBP/KSBP)

Map

Destinations

Information

Location
San Luis Obispo, CA
Local Time
06:13 / 6:13 am
GMT Time
14:13 / 2:13 pm
Gates
Unassigned
No FAA reported delays
METAR KSBP 221356Z 14017G24KT 5SM RA OVC044 11/08 A2985 RMK AO2 PK WND 14026/1319 SLP110 P0010 T01110078
TAF KSBP 221140Z 2212/2312 14017G27KT 5SM -RA BR SCT012 OVC040 FM221500 16017G27KT 1SM +RA BR BKN007 OVC012 FM221900 17015G25KT 4SM -RA BKN012 OVC025 FM222100 24010G18KT 6SM -SHRA BR BKN025 OVC050 FM230100 16012KT P6SM -RA OVC015 PROB30 2304/2308 P6SM -TSRA BKN015CB FM230800 17008KT P6SM OVC050 TEMPO 2308/2312 P6SM -RA OVC050
  • No charts available